Time;durP1;ratioP1;P1;durP2;ratioP2;P2;SDS_P1;SDS_P2;PMS_P1;PMS_P2;Temp;Humidity;BMP_temperature;BMP_pressure;BME280_temperature;BME280_humidity;BME280_pressure;Samples;Min_cycle;Max_cycle;Signal;HPM_P1;HPM_P2
2020/12/14 00:02:24;;;;;;;163.05;40.33;;;0.60;99.90;;;;;;5051776;28;20016;-74
2020/12/14 00:04:50;;;;;;;177.43;44.15;;;0.60;99.90;;;;;;5051990;28;20110;-74
2020/12/14 00:07:19;;;;;;;155.02;39.85;;;0.60;99.90;;;;;;5052012;28;20071;-75
2020/12/14 00:09:46;;;;;;;159.02;43.97;;;0.60;99.90;;;;;;5052044;28;20479;-75
2020/12/14 00:12:14;;;;;;;165.43;44.30;;;0.60;99.90;;;;;;5051913;28;20025;-75
2020/12/14 00:14:43;;;;;;;116.63;34.58;;;0.60;99.90;;;;;;5052146;28;20040;-74
2020/12/14 00:17:16;;;;;;;168.38;42.42;;;0.60;99.90;;;;;;5051852;28;20021;-74
2020/12/14 00:19:42;;;;;;;159.50;41.17;;;0.60;99.90;;;;;;5051977;28;20025;-74
2020/12/14 00:22:08;;;;;;;145.63;38.97;;;0.60;99.90;;;;;;5051768;28;20033;-74
2020/12/14 00:24:33;;;;;;;168.48;42.83;;;0.60;99.90;;;;;;5052047;28;20035;-75
2020/12/14 00:26:59;;;;;;;172.25;42.83;;;0.60;99.90;;;;;;5051780;28;20407;-75
2020/12/14 00:29:25;;;;;;;169.02;42.45;;;0.60;99.90;;;;;;5051811;28;20367;-74
2020/12/14 00:31:52;;;;;;;169.93;41.85;;;0.60;99.90;;;;;;5035423;28;20061;-74
2020/12/14 00:34:19;;;;;;;166.93;41.33;;;0.60;99.90;;;;;;5055792;28;20028;-74
2020/12/14 00:36:45;;;;;;;194.57;46.50;;;0.60;99.90;;;;;;5037804;28;20028;-74
2020/12/14 00:39:11;;;;;;;152.30;43.55;;;0.60;99.90;;;;;;5055820;28;20025;-75
2020/12/14 00:41:37;;;;;;;160.00;42.95;;;0.60;99.90;;;;;;5038153;28;20344;-74
2020/12/14 00:44:06;;;;;;;144.52;38.70;;;0.60;99.90;;;;;;5055803;28;20025;-74
2020/12/14 00:46:32;;;;;;;167.60;42.58;;;0.60;99.90;;;;;;5055726;28;20063;-74
2020/12/14 00:48:58;;;;;;;154.30;41.90;;;0.60;99.90;;;;;;5037763;28;20056;-75
2020/12/14 00:51:28;;;;;;;163.25;41.63;;;0.60;99.90;;;;;;5037503;28;20129;-74
2020/12/14 00:53:54;;;;;;;155.77;38.17;;;0.60;99.90;;;;;;5055480;28;20028;-74
2020/12/14 00:56:20;;;;;;;162.70;42.50;;;0.60;99.90;;;;;;5055417;28;20097;-74
2020/12/14 00:58:46;;;;;;;152.20;40.90;;;0.60;99.90;;;;;;5055509;28;20823;-74
2020/12/14 01:01:13;;;;;;;147.77;39.10;;;0.60;99.90;;;;;;5055289;28;20432;-74
2020/12/14 01:03:39;;;;;;;156.25;38.92;;;0.50;99.90;;;;;;5055346;28;20090;-74
2020/12/14 01:06:05;;;;;;;147.48;37.17;;;0.60;99.90;;;;;;5037216;28;20029;-74
2020/12/14 01:08:32;;;;;;;164.05;42.08;;;0.50;99.90;;;;;;5037224;28;20033;-74
2020/12/14 01:10:58;;;;;;;150.98;40.92;;;0.50;99.90;;;;;;5054905;28;20029;-75
2020/12/14 01:13:24;;;;;;;152.52;39.25;;;0.50;99.90;;;;;;5054991;28;20025;-75
2020/12/14 01:15:50;;;;;;;162.25;41.92;;;0.50;99.90;;;;;;5037277;28;20383;-75
2020/12/14 01:18:16;;;;;;;145.15;39.55;;;0.50;99.90;;;;;;5054958;28;20036;-74
2020/12/14 01:20:42;;;;;;;140.10;38.55;;;0.50;99.90;;;;;;5054706;28;20053;-74
2020/12/14 01:23:08;;;;;;;139.93;40.17;;;0.50;99.90;;;;;;5036878;28;20114;-75
2020/12/14 01:25:35;;;;;;;147.75;37.65;;;0.50;99.90;;;;;;5054908;28;20037;-73
2020/12/14 01:28:00;;;;;;;146.45;38.47;;;0.50;99.90;;;;;;5054865;28;20025;-74
2020/12/14 01:30:27;;;;;;;137.77;36.97;;;0.50;99.90;;;;;;5058454;28;20017;-74
2020/12/14 01:32:53;;;;;;;129.55;35.15;;;0.50;99.90;;;;;;5057718;28;20112;-74
2020/12/14 01:35:19;;;;;;;150.68;39.17;;;0.50;99.90;;;;;;5057682;28;20056;-74
2020/12/14 01:37:45;;;;;;;145.38;40.13;;;0.50;99.90;;;;;;5058578;28;20122;-74
2020/12/14 01:40:11;;;;;;;145.57;38.42;;;0.50;99.90;;;;;;5059578;28;20049;-74
2020/12/14 01:42:41;;;;;;;139.27;40.50;;;0.50;99.90;;;;;;5055650;28;20032;-75
2020/12/14 01:45:07;;;;;;;148.80;39.22;;;0.50;99.90;;;;;;5037515;28;20029;-74
2020/12/14 01:47:38;;;;;;;115.22;34.60;;;0.50;99.90;;;;;;5055815;28;20029;-75
2020/12/14 01:50:06;;;;;;;143.15;37.72;;;0.50;99.90;;;;;;5057663;28;20025;-81
2020/12/14 01:52:32;;;;;;;138.65;37.97;;;0.50;99.90;;;;;;5056492;28;20028;-80
2020/12/14 01:55:00;;;;;;;129.52;37.25;;;0.50;99.90;;;;;;5056216;28;20082;-80
2020/12/14 01:57:27;;;;;;;123.55;34.60;;;0.50;99.90;;;;;;5056645;28;20099;-82
2020/12/14 01:59:56;;;;;;;119.95;35.40;;;0.50;99.90;;;;;;5056648;28;20021;-81
2020/12/14 02:02:22;;;;;;;119.28;36.13;;;0.50;99.90;;;;;;5056005;28;20033;-81
2020/12/14 02:04:48;;;;;;;136.00;39.40;;;0.50;99.90;;;;;;5056344;28;20032;-81
2020/12/14 02:07:13;;;;;;;129.45;34.70;;;0.50;99.90;;;;;;5056013;28;20029;-82
2020/12/14 02:09:39;;;;;;;104.05;34.10;;;0.50;99.90;;;;;;5037833;28;20037;-82
2020/12/14 02:12:05;;;;;;;129.65;36.72;;;0.50;99.90;;;;;;5055523;28;20025;-81
2020/12/14 02:14:31;;;;;;;121.78;37.20;;;0.40;99.90;;;;;;5055717;28;20022;-81
2020/12/14 02:16:56;;;;;;;115.57;35.70;;;0.50;99.90;;;;;;5037550;28;20017;-81
2020/12/14 02:19:22;;;;;;;91.78;27.48;;;0.50;99.90;;;;;;5054851;28;20529;-81
2020/12/14 02:21:51;;;;;;;109.90;33.58;;;0.50;99.90;;;;;;5055667;28;20027;-79
2020/12/14 02:24:17;;;;;;;86.53;26.73;;;0.50;99.90;;;;;;5055227;28;20115;-80
2020/12/14 02:26:48;;;;;;;111.22;32.75;;;0.40;99.90;;;;;;5055014;28;20041;-80
2020/12/14 02:29:20;;;;;;;98.88;28.83;;;0.40;99.90;;;;;;5055822;28;20055;-80
2020/12/14 02:31:47;;;;;;;94.78;29.15;;;0.50;99.90;;;;;;5040625;28;20096;-79
2020/12/14 02:34:13;;;;;;;127.43;34.88;;;0.50;99.90;;;;;;5056104;28;20075;-79
2020/12/14 02:36:40;;;;;;;113.13;33.72;;;0.50;99.90;;;;;;5055079;28;20020;-73
2020/12/14 02:39:06;;;;;;;111.28;33.75;;;0.50;99.90;;;;;;5053934;28;20436;-75
2020/12/14 02:41:33;;;;;;;118.70;33.05;;;0.50;99.90;;;;;;5053491;28;20029;-74
2020/12/14 02:43:59;;;;;;;97.45;29.75;;;0.50;99.90;;;;;;5035274;28;20098;-74
2020/12/14 02:46:24;;;;;;;103.82;31.38;;;0.50;99.90;;;;;;5035457;28;20025;-74
2020/12/14 02:48:50;;;;;;;106.85;31.58;;;0.50;99.90;;;;;;5053305;28;20136;-74
2020/12/14 02:51:20;;;;;;;84.32;27.23;;;0.40;99.90;;;;;;5053219;28;20057;-75
2020/12/14 02:53:49;;;;;;;93.45;28.88;;;0.40;99.90;;;;;;5034997;28;20164;-75
2020/12/14 02:56:16;;;;;;;78.72;26.35;;;0.40;99.90;;;;;;5052930;28;20464;-75
2020/12/14 02:58:43;;;;;;;107.35;31.73;;;0.40;99.90;;;;;;5052978;28;20013;-76
2020/12/14 03:01:09;;;;;;;103.70;30.95;;;0.40;99.90;;;;;;5053275;28;20035;-76
2020/12/14 03:03:35;;;;;;;86.35;27.48;;;0.40;99.90;;;;;;5053127;28;20024;-75
2020/12/14 03:06:01;;;;;;;87.88;28.75;;;0.50;99.90;;;;;;5053192;28;20025;-76
2020/12/14 03:08:26;;;;;;;97.00;32.15;;;0.40;99.90;;;;;;5053465;28;20494;-75
2020/12/14 03:10:52;;;;;;;108.13;31.77;;;0.50;99.90;;;;;;5034960;28;20021;-76
2020/12/14 03:13:18;;;;;;;91.75;27.33;;;0.50;99.90;;;;;;5052815;28;20021;-74
2020/12/14 03:15:44;;;;;;;78.60;25.80;;;0.50;99.90;;;;;;5035052;28;20117;-74
2020/12/14 03:18:10;;;;;;;77.32;25.88;;;0.50;99.90;;;;;;5035561;28;20025;-82
2020/12/14 03:20:36;;;;;;;79.43;28.15;;;0.50;99.90;;;;;;5054812;28;20024;-82
2020/12/14 03:23:01;;;;;;;76.85;27.02;;;0.50;99.90;;;;;;5054157;28;20024;-83
2020/12/14 03:25:27;;;;;;;64.25;22.05;;;0.40;99.90;;;;;;5036217;28;20068;-83
2020/12/14 03:27:53;;;;;;;96.25;29.40;;;0.40;99.90;;;;;;5054380;28;20028;-83
2020/12/14 03:30:19;;;;;;;94.20;27.98;;;0.40;99.90;;;;;;5054519;28;20735;-83
2020/12/14 03:32:45;;;;;;;97.43;31.00;;;0.50;99.90;;;;;;5036232;28;20422;-83
2020/12/14 03:35:11;;;;;;;76.20;25.23;;;0.50;99.90;;;;;;5036418;28;20033;-82
2020/12/14 03:37:37;;;;;;;61.72;22.77;;;0.50;99.90;;;;;;5037066;28;20418;-81
2020/12/14 03:40:04;;;;;;;71.43;24.40;;;0.50;99.90;;;;;;5054947;28;20020;-80
2020/12/14 03:42:29;;;;;;;67.78;24.63;;;0.50;99.90;;;;;;5056438;28;20036;-81
2020/12/14 03:44:55;;;;;;;79.93;26.33;;;0.50;99.90;;;;;;5036584;28;20359;-82
2020/12/14 03:47:21;;;;;;;77.90;25.02;;;0.40;99.90;;;;;;5054057;28;20100;-81
2020/12/14 03:49:47;;;;;;;65.65;23.45;;;0.40;99.90;;;;;;5054012;28;20421;-82
2020/12/14 03:52:13;;;;;;;86.97;28.02;;;0.40;99.90;;;;;;5054095;28;20028;-82
2020/12/14 03:54:38;;;;;;;88.40;28.15;;;0.40;99.90;;;;;;5055072;28;20036;-82
2020/12/14 03:57:04;;;;;;;99.63;29.88;;;0.40;99.90;;;;;;5055416;28;20104;-82
2020/12/14 03:59:30;;;;;;;100.00;29.35;;;0.50;99.90;;;;;;5054683;28;20028;-82
2020/12/14 04:01:55;;;;;;;90.53;30.10;;;0.50;99.90;;;;;;5053854;28;20545;-82
2020/12/14 04:04:22;;;;;;;95.63;28.40;;;0.40;99.90;;;;;;5053595;28;20025;-81
2020/12/14 04:06:48;;;;;;;77.53;27.38;;;0.50;99.90;;;;;;5035222;28;20031;-82
2020/12/14 04:09:13;;;;;;;99.03;29.55;;;0.50;99.90;;;;;;5054021;28;20107;-82
2020/12/14 04:11:39;;;;;;;87.72;28.35;;;0.50;99.90;;;;;;5035682;28;20538;-82
2020/12/14 04:14:05;;;;;;;81.13;26.70;;;0.50;99.90;;;;;;5053736;28;20025;-82
2020/12/14 04:16:30;;;;;;;90.93;29.90;;;0.50;99.90;;;;;;5053598;28;20021;-81
2020/12/14 04:18:56;;;;;;;74.78;24.77;;;0.50;99.90;;;;;;5053711;28;20023;-81
2020/12/14 04:21:22;;;;;;;75.15;25.30;;;0.50;99.90;;;;;;5053499;28;20021;-81
2020/12/14 04:23:47;;;;;;;68.35;23.40;;;0.50;99.90;;;;;;5053400;28;20104;-81
2020/12/14 04:26:14;;;;;;;59.92;21.88;;;0.40;99.90;;;;;;5053446;28;20044;-81
2020/12/14 04:28:41;;;;;;;59.10;21.83;;;0.50;99.90;;;;;;5053688;28;20049;-81
2020/12/14 04:31:06;;;;;;;67.22;24.55;;;0.40;99.90;;;;;;5036204;28;20120;-80
2020/12/14 04:33:32;;;;;;;61.75;20.67;;;0.40;99.90;;;;;;5055008;28;20059;-81
2020/12/14 04:35:58;;;;;;;75.93;25.63;;;0.40;99.90;;;;;;5054492;28;20037;-80
2020/12/14 04:38:24;;;;;;;80.30;26.63;;;0.40;99.90;;;;;;5055086;28;20096;-80
2020/12/14 04:40:51;;;;;;;89.32;26.98;;;0.40;99.90;;;;;;5054173;28;20418;-80
2020/12/14 04:43:17;;;;;;;61.20;22.95;;;0.40;99.90;;;;;;5036420;28;20459;-80
2020/12/14 04:45:44;;;;;;;65.57;23.83;;;0.40;99.90;;;;;;5053519;28;20048;-82
2020/12/14 04:48:10;;;;;;;67.25;24.23;;;0.40;99.90;;;;;;5053444;28;20132;-83
2020/12/14 04:50:39;;;;;;;76.80;24.10;;;0.40;99.90;;;;;;5053021;28;20104;-82
2020/12/14 04:53:04;;;;;;;66.93;24.00;;;0.40;99.90;;;;;;5035317;28;20032;-81
2020/12/14 04:55:36;;;;;;;70.88;25.38;;;0.50;99.90;;;;;;5035923;28;20044;-82
2020/12/14 04:58:04;;;;;;;69.38;24.83;;;0.50;99.90;;;;;;5053287;28;20136;-81
2020/12/14 05:00:30;;;;;;;51.97;22.17;;;0.50;99.90;;;;;;5053497;28;20044;-82
2020/12/14 05:02:56;;;;;;;68.93;24.73;;;0.50;99.90;;;;;;5053155;28;20057;-81
2020/12/14 05:05:23;;;;;;;85.82;28.50;;;0.40;99.90;;;;;;5035204;28;20112;-82
2020/12/14 05:07:49;;;;;;;66.80;23.65;;;0.40;99.90;;;;;;5053645;28;20148;-82
2020/12/14 05:10:15;;;;;;;66.13;22.67;;;0.40;99.90;;;;;;5053422;28;20029;-82
2020/12/14 05:12:45;;;;;;;77.60;27.10;;;0.40;99.90;;;;;;5038081;28;20021;-82
2020/12/14 05:15:28;;;;;;;76.75;24.05;;;0.40;99.90;;;;;;5062691;28;20024;-82
2020/12/14 05:18:15;;;;;;;74.50;25.73;;;0.40;99.90;;;;;;5036679;28;20028;-81
2020/12/14 05:20:42;;;;;;;86.50;27.55;;;0.40;99.90;;;;;;5038725;28;20195;-80
2020/12/14 05:23:11;;;;;;;59.03;22.55;;;0.40;99.90;;;;;;5038504;28;20028;-82
2020/12/14 05:25:37;;;;;;;73.30;26.90;;;0.40;99.90;;;;;;5056019;28;20041;-75
2020/12/14 05:28:13;;;;;;;85.13;27.80;;;0.40;99.90;;;;;;5036472;28;20036;-76
2020/12/14 05:30:42;;;;;;;75.13;24.13;;;0.40;99.90;;;;;;5054474;28;20091;-75
2020/12/14 05:33:09;;;;;;;73.05;24.00;;;0.50;99.90;;;;;;5054251;28;20463;-76
2020/12/14 05:35:37;;;;;;;73.75;24.92;;;0.40;99.90;;;;;;5054180;28;20017;-76
2020/12/14 05:38:30;;;;;;;55.17;21.33;;;0.40;99.90;;;;;;5054192;28;20013;-74
2020/12/14 05:41:01;;;;;;;67.63;25.45;;;0.50;99.90;;;;;;5033180;28;20044;-76
2020/12/14 05:43:32;;;;;;;55.28;22.63;;;0.40;99.90;;;;;;5036403;28;20027;-76
2020/12/14 05:46:16;;;;;;;79.47;29.35;;;0.40;99.90;;;;;;5053895;28;20021;-75
2020/12/14 05:48:42;;;;;;;77.35;30.13;;;0.40;99.90;;;;;;5053716;28;20032;-76
2020/12/14 05:51:09;;;;;;;64.43;24.17;;;0.40;99.90;;;;;;5053839;28;20351;-75
2020/12/14 05:53:38;;;;;;;75.07;25.85;;;0.50;99.90;;;;;;5035968;28;20128;-76
2020/12/14 05:56:10;;;;;;;72.88;26.85;;;0.50;99.90;;;;;;5054022;28;20442;-74
2020/12/14 05:58:38;;;;;;;71.95;26.10;;;0.50;99.90;;;;;;5054833;28;20035;-83
2020/12/14 06:01:06;;;;;;;59.53;23.00;;;0.50;99.90;;;;;;5055946;28;20092;-83
2020/12/14 06:03:33;;;;;;;88.88;28.58;;;0.50;99.90;;;;;;5038936;28;20021;-83
2020/12/14 06:06:08;;;;;;;64.13;22.95;;;0.50;99.90;;;;;;5057386;28;20061;-83
2020/12/14 06:08:46;;;;;;;74.03;25.33;;;0.50;99.90;;;;;;5056828;28;20076;-83
2020/12/14 06:11:13;;;;;;;64.90;24.88;;;0.50;99.90;;;;;;5038170;28;20021;-83
2020/12/14 06:14:02;;;;;;;68.50;23.25;;;0.50;99.90;;;;;;5037505;28;20124;-83
2020/12/14 06:16:37;;;;;;;74.93;25.27;;;0.50;99.90;;;;;;5055363;28;20083;-83
2020/12/14 06:19:03;;;;;;;63.47;24.23;;;0.50;99.90;;;;;;5055805;28;20045;-84
2020/12/14 06:21:53;;;;;;;56.38;21.13;;;0.50;99.90;;;;;;5055405;28;20032;-83
2020/12/14 06:24:28;;;;;;;66.75;23.73;;;0.50;99.90;;;;;;5056072;28;20025;-82
2020/12/14 06:26:54;;;;;;;62.60;24.23;;;0.50;99.90;;;;;;5055463;28;20053;-83
2020/12/14 06:29:34;;;;;;;55.65;22.23;;;0.50;99.90;;;;;;5054305;28;20036;-83
2020/12/14 06:32:00;;;;;;;73.00;26.00;;;0.50;99.90;;;;;;5056058;28;20056;-83
2020/12/14 06:34:32;;;;;;;53.88;21.00;;;0.50;99.90;;;;;;5056363;28;20048;-84
2020/12/14 06:37:01;;;;;;;55.60;22.35;;;0.50;99.90;;;;;;5054570;28;20487;-83
2020/12/14 06:39:28;;;;;;;69.07;25.85;;;0.50;99.90;;;;;;5037681;28;20028;-83
2020/12/14 06:42:14;;;;;;;61.45;25.27;;;0.50;99.90;;;;;;5054394;28;20032;-83
2020/12/14 06:44:42;;;;;;;69.05;24.48;;;0.60;99.90;;;;;;5061091;28;20055;-83
2020/12/14 06:47:14;;;;;;;65.25;23.73;;;0.60;99.90;;;;;;5054719;28;20083;-81
2020/12/14 06:49:40;;;;;;;67.47;25.77;;;0.60;99.90;;;;;;5055215;28;20021;-80
2020/12/14 06:52:06;;;;;;;72.38;29.75;;;0.60;99.90;;;;;;5054527;28;20128;-82
2020/12/14 06:54:45;;;;;;;51.20;21.58;;;0.60;99.90;;;;;;5054442;28;20483;-75
2020/12/14 06:57:13;;;;;;;57.90;23.27;;;0.60;99.90;;;;;;5052558;28;20032;-74
2020/12/14 06:59:39;;;;;;;73.13;26.60;;;0.60;99.90;;;;;;5051843;28;20035;-75
2020/12/14 07:02:09;;;;;;;56.88;24.42;;;0.60;99.90;;;;;;5052441;28;20029;-74
2020/12/14 07:04:37;;;;;;;76.25;28.98;;;0.60;99.90;;;;;;5052340;28;20017;-75
2020/12/14 07:07:06;;;;;;;61.92;25.23;;;0.60;99.90;;;;;;5052230;28;20029;-75
2020/12/14 07:09:34;;;;;;;59.08;24.85;;;0.70;99.90;;;;;;5034631;28;20094;-75
2020/12/14 07:12:09;;;;;;;61.53;24.63;;;0.70;99.90;;;;;;5034624;28;20424;-76
2020/12/14 07:14:48;;;;;;;61.13;23.40;;;0.70;99.90;;;;;;5052776;28;20031;-74
2020/12/14 07:17:20;;;;;;;64.65;26.02;;;0.70;99.90;;;;;;5053213;28;20029;-74
2020/12/14 07:19:47;;;;;;;46.55;20.27;;;0.70;99.90;;;;;;5052252;28;20021;-75
2020/12/14 07:22:21;;;;;;;58.03;23.60;;;0.70;99.90;;;;;;5034267;28;20104;-75
2020/12/14 07:25:00;;;;;;;65.85;26.48;;;0.70;99.90;;;;;;5051794;28;20025;-75
2020/12/14 07:27:27;;;;;;;49.75;21.75;;;0.70;99.90;;;;;;5034157;28;20029;-75
2020/12/14 07:30:13;;;;;;;61.05;24.70;;;0.70;99.90;;;;;;5052009;28;20569;-75
2020/12/14 07:32:40;;;;;;;55.00;22.05;;;0.80;99.90;;;;;;5033800;28;20250;-74
2020/12/14 07:35:07;;;;;;;45.28;19.50;;;0.80;99.90;;;;;;5052037;28;20121;-75
2020/12/14 07:37:34;;;;;;;59.78;25.60;;;0.80;99.90;;;;;;5052524;28;20052;-75
2020/12/14 07:40:00;;;;;;;64.30;26.30;;;0.80;99.90;;;;;;5051764;28;20120;-74
2020/12/14 07:42:28;;;;;;;67.43;28.55;;;0.80;99.90;;;;;;5052232;28;20025;-77
2020/12/14 07:45:17;;;;;;;77.95;29.65;;;0.80;99.90;;;;;;5051636;28;20109;-76
2020/12/14 07:47:44;;;;;;;76.90;31.05;;;0.80;99.90;;;;;;5033966;28;20032;-76
2020/12/14 07:50:14;;;;;;;82.63;29.73;;;0.90;99.90;;;;;;5034005;28;20040;-75
2020/12/14 07:52:41;;;;;;;86.40;32.20;;;0.90;99.90;;;;;;5051741;28;20104;-75
2020/12/14 07:55:11;;;;;;;66.20;26.40;;;0.90;99.90;;;;;;5051860;28;20025;-76
2020/12/14 07:57:39;;;;;;;67.88;26.85;;;0.90;99.90;;;;;;5051374;28;20385;-76
2020/12/14 08:00:13;;;;;;;75.95;27.23;;;0.90;99.90;;;;;;5051437;28;20423;-76
2020/12/14 08:02:40;;;;;;;70.22;29.48;;;0.90;99.90;;;;;;5051645;28;20063;-76
2020/12/14 08:05:14;;;;;;;68.57;27.02;;;0.90;99.90;;;;;;5051742;28;20083;-76
2020/12/14 08:07:49;;;;;;;51.00;23.48;;;0.90;99.90;;;;;;5051689;28;20033;-76
2020/12/14 08:10:15;;;;;;;45.53;20.75;;;1.00;99.90;;;;;;5051809;28;20036;-75
2020/12/14 08:12:43;;;;;;;58.58;25.88;;;1.00;99.90;;;;;;5052301;28;20036;-81
2020/12/14 08:15:19;;;;;;;59.00;26.15;;;0.90;99.90;;;;;;5038031;28;20029;-81
2020/12/14 08:17:48;;;;;;;60.80;23.08;;;1.00;99.90;;;;;;5064068;28;20025;-82
2020/12/14 08:20:25;;;;;;;59.35;25.88;;;1.00;99.90;;;;;;5065973;28;20036;-81
2020/12/14 08:22:53;;;;;;;50.10;21.80;;;1.00;99.90;;;;;;5058943;28;20046;-82
2020/12/14 08:25:24;;;;;;;56.55;23.95;;;1.00;99.90;;;;;;5035657;28;20056;-80
2020/12/14 08:27:59;;;;;;;57.90;26.48;;;1.00;99.90;;;;;;5053711;28;20032;-82
2020/12/14 08:30:42;;;;;;;81.15;33.65;;;1.00;99.90;;;;;;5053744;28;20471;-82
2020/12/14 08:33:16;;;;;;;50.35;20.58;;;1.00;99.90;;;;;;5037696;28;20471;-82
2020/12/14 08:35:53;;;;;;;50.97;23.08;;;1.00;99.90;;;;;;5053354;28;20021;-81
2020/12/14 08:38:29;;;;;;;59.90;23.30;;;0.90;99.90;;;;;;5052496;28;20079;-81
2020/12/14 08:41:04;;;;;;;67.90;26.23;;;1.00;99.90;;;;;;5052429;28;20021;-79
2020/12/14 08:43:32;;;;;;;61.40;24.85;;;1.00;99.90;;;;;;5051571;28;20024;-75
2020/12/14 08:46:29;;;;;;;67.93;25.58;;;1.00;99.90;;;;;;5051793;28;20431;-80
2020/12/14 08:48:57;;;;;;;65.25;27.15;;;1.10;99.90;;;;;;5032231;28;20473;-76
2020/12/14 08:51:33;;;;;;;65.65;26.55;;;1.10;99.90;;;;;;5049827;28;20035;-76
2020/12/14 08:54:12;;;;;;;67.85;27.02;;;1.10;99.90;;;;;;5035668;28;20154;-77
2020/12/14 08:56:39;;;;;;;66.78;27.73;;;1.10;99.90;;;;;;5055482;28;20028;-76
2020/12/14 08:59:11;;;;;;;57.50;25.15;;;1.10;99.90;;;;;;5055043;28;20456;-77
2020/12/14 09:01:37;;;;;;;46.50;20.60;;;1.00;99.90;;;;;;5036842;28;20025;-76
2020/12/14 09:04:05;;;;;;;80.80;33.40;;;1.00;99.90;;;;;;5055605;28;20028;-75
2020/12/14 09:06:35;;;;;;;65.45;26.45;;;1.00;99.90;;;;;;5055818;28;20100;-76
2020/12/14 09:45:37;;;;;;;77.20;28.02;;;1.20;99.90;;;;;;5775230;23;20074;-80
2020/12/14 09:48:03;;;;;;;76.30;30.30;;;1.20;99.90;;;;;;4976443;28;20066;-78
2020/12/14 09:50:29;;;;;;;57.03;26.05;;;1.20;99.90;;;;;;4975400;28;20081;-77
2020/12/14 09:52:54;;;;;;;59.03;27.50;;;1.30;99.90;;;;;;4975738;28;20026;-78
2020/12/14 09:55:20;;;;;;;62.58;27.33;;;1.30;99.90;;;;;;4957820;28;20737;-78
2020/12/14 09:57:46;;;;;;;55.47;24.05;;;1.30;99.90;;;;;;4974741;28;20098;-77
2020/12/14 10:00:11;;;;;;;49.38;21.50;;;1.30;99.90;;;;;;4974427;28;20385;-77
2020/12/14 10:02:37;;;;;;;58.35;24.52;;;1.30;99.90;;;;;;4974897;28;20038;-77
2020/12/14 10:05:03;;;;;;;58.83;24.73;;;1.30;99.90;;;;;;4974170;28;20027;-78
2020/12/14 10:07:28;;;;;;;58.72;27.05;;;1.40;99.90;;;;;;4974816;28;20031;-77
2020/12/14 10:09:54;;;;;;;69.05;26.10;;;1.40;99.90;;;;;;4975239;28;20026;-78
2020/12/14 10:12:20;;;;;;;63.35;28.60;;;1.40;99.90;;;;;;4974655;28;20031;-77
2020/12/14 10:14:45;;;;;;;45.78;20.85;;;1.50;99.90;;;;;;4957478;28;20082;-78
2020/12/14 10:17:11;;;;;;;45.08;22.15;;;1.50;99.90;;;;;;4974867;28;20470;-80
2020/12/14 10:19:37;;;;;;;51.47;22.40;;;1.50;99.90;;;;;;4975636;28;20022;-79
2020/12/14 10:22:03;;;;;;;61.85;26.67;;;1.60;99.90;;;;;;4975146;28;20023;-79
2020/12/14 10:24:28;;;;;;;53.08;24.55;;;1.50;99.90;;;;;;4975174;28;20102;-79
2020/12/14 10:26:54;;;;;;;59.63;26.50;;;1.60;99.90;;;;;;4975222;28;20493;-79
2020/12/14 10:29:37;;;;;;;48.20;22.83;;;1.60;99.90;;;;;;4975794;28;20027;-80
2020/12/14 10:32:03;;;;;;;71.22;31.98;;;1.60;99.90;;;;;;4958627;28;20031;-77
2020/12/14 10:34:30;;;;;;;69.80;30.70;;;1.60;99.90;;;;;;4974100;28;20033;-78
2020/12/14 10:36:56;;;;;;;58.20;26.27;;;1.60;99.90;;;;;;4974590;28;20484;-77
2020/12/14 10:39:22;;;;;;;60.30;25.45;;;1.50;99.90;;;;;;4974221;28;20101;-78
2020/12/14 10:41:51;;;;;;;96.97;36.25;;;1.50;99.90;;;;;;4974148;28;20042;-77
2020/12/14 10:44:16;;;;;;;56.47;22.20;;;1.50;99.90;;;;;;4974386;28;20027;-77
2020/12/14 10:46:42;;;;;;;73.20;28.83;;;1.40;99.90;;;;;;4974364;28;20051;-78
2020/12/14 10:49:10;;;;;;;66.20;26.42;;;1.40;99.90;;;;;;4974397;28;20026;-77
2020/12/14 10:51:36;;;;;;;58.38;23.63;;;1.40;99.90;;;;;;4974332;28;20026;-78
2020/12/14 10:54:02;;;;;;;112.38;36.55;;;1.40;99.90;;;;;;4974062;28;20454;-79
2020/12/14 10:56:28;;;;;;;95.05;35.90;;;1.30;99.90;;;;;;4974549;28;20027;-78
2020/12/14 10:58:55;;;;;;;73.32;27.17;;;1.30;99.90;;;;;;4973910;28;20051;-77
2020/12/14 11:01:21;;;;;;;96.18;29.73;;;1.30;99.90;;;;;;4974052;28;20019;-78
2020/12/14 11:03:47;;;;;;;85.20;28.10;;;1.20;99.90;;;;;;4956156;28;20026;-77
2020/12/14 11:06:12;;;;;;;95.93;32.88;;;1.30;99.90;;;;;;4973615;28;20030;-78
2020/12/14 11:08:38;;;;;;;91.78;30.35;;;1.20;99.90;;;;;;4956278;28;20030;-77
2020/12/14 11:11:04;;;;;;;73.47;25.63;;;1.30;99.90;;;;;;4973510;28;20034;-78
2020/12/14 11:13:30;;;;;;;77.55;28.10;;;1.30;99.90;;;;;;4956201;28;20448;-78
2020/12/14 11:15:56;;;;;;;72.22;27.60;;;1.20;99.90;;;;;;4973504;28;20022;-78
2020/12/14 11:18:21;;;;;;;70.65;26.75;;;1.20;99.90;;;;;;4956679;28;20031;-79
2020/12/14 11:20:47;;;;;;;86.75;31.25;;;1.20;99.90;;;;;;4956270;28;20480;-79
2020/12/14 11:23:14;;;;;;;85.03;32.70;;;1.30;99.90;;;;;;4956400;28;20031;-77
2020/12/14 11:25:40;;;;;;;80.25;32.20;;;1.30;99.90;;;;;;4973595;28;20054;-78
2020/12/14 11:28:05;;;;;;;78.75;30.80;;;1.30;99.90;;;;;;4974176;28;20063;-78
2020/12/14 11:30:31;;;;;;;80.50;31.08;;;1.40;99.90;;;;;;4973502;28;20746;-78
2020/12/14 11:32:57;;;;;;;68.13;28.45;;;1.40;99.90;;;;;;4973872;28;20058;-78
2020/12/14 11:35:23;;;;;;;74.18;29.52;;;1.40;99.90;;;;;;4975103;28;20019;-78
2020/12/14 11:37:48;;;;;;;75.45;32.42;;;1.40;99.90;;;;;;4973257;28;20101;-78
2020/12/14 11:40:14;;;;;;;67.40;25.33;;;1.40;99.90;;;;;;4973264;28;20073;-77
2020/12/14 11:42:40;;;;;;;67.20;25.58;;;1.40;99.90;;;;;;4973242;28;20023;-78
2020/12/14 11:45:09;;;;;;;68.55;27.92;;;1.40;99.90;;;;;;4956042;28;20090;-76
2020/12/14 11:47:35;;;;;;;68.43;28.80;;;1.40;99.90;;;;;;4976110;28;20497;-77
2020/12/14 11:50:03;;;;;;;75.53;28.10;;;1.40;99.90;;;;;;4972348;28;20049;-77
2020/12/14 11:52:29;;;;;;;70.20;26.98;;;1.50;99.90;;;;;;4972299;28;20445;-78
2020/12/14 11:54:55;;;;;;;83.70;29.80;;;1.40;99.90;;;;;;4972777;28;20093;-78
2020/12/14 11:57:20;;;;;;;73.97;28.92;;;1.50;99.90;;;;;;4972587;28;20027;-78
2020/12/14 11:59:46;;;;;;;73.80;29.42;;;1.40;99.90;;;;;;4972500;28;20031;-78
2020/12/14 12:02:15;;;;;;;66.72;26.42;;;1.50;99.90;;;;;;4955085;28;20035;-77
2020/12/14 12:04:41;;;;;;;62.45;27.38;;;1.50;99.90;;;;;;4972081;28;20060;-78
2020/12/14 12:07:07;;;;;;;70.93;27.52;;;1.60;99.90;;;;;;4972363;28;20033;-78
2020/12/14 12:09:34;;;;;;;80.45;30.13;;;1.60;99.90;;;;;;4972137;28;20026;-78
2020/12/14 12:12:01;;;;;;;56.70;25.70;;;1.60;99.90;;;;;;4972315;28;20023;-77
2020/12/14 12:14:27;;;;;;;59.58;25.48;;;1.60;99.90;;;;;;4972062;28;20537;-78
2020/12/14 12:16:59;;;;;;;66.97;27.00;;;1.60;99.90;;;;;;4972603;28;20110;-78
2020/12/14 12:19:25;;;;;;;69.55;29.08;;;1.70;99.90;;;;;;4972170;28;20532;-78
2020/12/14 12:21:59;;;;;;;64.32;26.02;;;1.70;99.90;;;;;;4972408;28;20034;-78
2020/12/14 12:24:25;;;;;;;113.60;41.50;;;1.80;99.90;;;;;;4972509;28;20049;-78
2020/12/14 12:26:51;;;;;;;79.72;29.27;;;1.90;99.90;;;;;;4970362;28;20039;-77
2020/12/14 12:29:20;;;;;;;68.75;26.38;;;1.90;99.90;;;;;;4971898;28;20046;-78
2020/12/14 12:31:58;;;;;;;63.55;25.63;;;2.00;99.90;;;;;;4972785;28;20034;-78
2020/12/14 12:34:25;;;;;;;59.42;26.17;;;1.90;99.90;;;;;;4955442;28;20042;-77
2020/12/14 12:36:56;;;;;;;85.32;37.90;;;2.00;99.90;;;;;;4955578;28;20027;-78
2020/12/14 12:39:22;;;;;;;53.97;23.85;;;1.90;99.90;;;;;;4972076;28;20465;-78
2020/12/14 12:41:50;;;;;;;68.38;29.35;;;2.00;99.90;;;;;;4972612;28;20071;-79
2020/12/14 12:44:23;;;;;;;69.18;28.30;;;1.90;99.90;;;;;;4971288;28;20067;-78
2020/12/14 12:46:49;;;;;;;;;;;1.80;99.90;;;;;;4974368;28;20062;-79
2020/12/14 12:49:14;;;;;;;68.03;30.35;;;1.80;99.90;;;;;;4974112;28;19918;-78
2020/12/14 12:51:44;;;;;;;73.03;27.00;;;1.80;99.90;;;;;;4991642;28;20457;-77
2020/12/14 12:54:14;;;;;;;68.10;26.60;;;1.80;99.90;;;;;;4992808;28;20026;-78
2020/12/14 12:56:40;;;;;;;86.63;33.92;;;1.80;99.90;;;;;;4974287;28;20022;-78
2020/12/14 12:59:06;;;;;;;88.93;36.20;;;1.80;99.90;;;;;;4991661;28;20025;-79
2020/12/14 13:01:32;;;;;;;107.68;41.33;;;1.70;99.90;;;;;;4991416;28;20034;-79
2020/12/14 13:03:57;;;;;;;70.78;30.85;;;1.70;99.90;;;;;;4990574;28;20034;-79
2020/12/14 13:06:34;;;;;;;71.72;30.13;;;1.80;99.90;;;;;;4991160;28;20022;-78
2020/12/14 13:09:00;;;;;;;76.93;30.23;;;1.80;99.90;;;;;;4973548;28;20023;-76
2020/12/14 13:11:27;;;;;;;75.50;28.40;;;1.90;99.90;;;;;;4990713;28;20038;-77
2020/12/14 13:13:54;;;;;;;65.05;27.35;;;1.90;99.90;;;;;;4973189;28;20026;-77
2020/12/14 13:16:24;;;;;;;72.03;28.35;;;1.90;99.90;;;;;;4991206;28;20038;-81
2020/12/14 13:18:50;;;;;;;66.93;27.55;;;1.90;99.90;;;;;;4973994;28;20022;-81